createdAt,value
2019-05-20T00:00:17.086Z,10.63
2019-05-20T00:02:46.562Z,10.40
2019-05-20T00:05:15.944Z,10.31
2019-05-20T00:07:45.341Z,10.25
2019-05-20T00:10:14.862Z,10.24
2019-05-20T00:12:44.195Z,10.24
2019-05-20T00:15:14.068Z,10.07
2019-05-20T00:17:43.324Z,9.91
2019-05-20T00:20:12.854Z,9.89
2019-05-20T00:22:42.252Z,9.87
2019-05-20T00:25:11.748Z,9.82
2019-05-20T00:27:41.040Z,9.84
2019-05-20T00:30:12.405Z,9.72
2019-05-20T00:32:42.555Z,9.66
2019-05-20T00:35:12.463Z,9.68
2019-05-20T00:37:41.749Z,9.62
2019-05-20T00:40:11.748Z,9.60
2019-05-20T00:42:41.253Z,9.54
2019-05-20T00:45:11.258Z,9.41
2019-05-20T00:47:40.580Z,9.39
2019-05-20T00:50:10.291Z,9.29
2019-05-20T00:52:39.591Z,9.31
2019-05-20T00:55:10.726Z,9.27
2019-05-20T00:57:39.999Z,9.26
2019-05-20T01:00:10.086Z,9.19
2019-05-20T01:02:39.379Z,9.02
2019-05-20T01:05:08.899Z,8.97
2019-05-20T01:07:38.141Z,9.03
2019-05-20T01:10:07.973Z,9.09
2019-05-20T01:12:37.370Z,9.06
2019-05-20T01:15:07.797Z,8.98
2019-05-20T01:17:37.171Z,8.98
2019-05-20T01:20:07.109Z,9.04
2019-05-20T01:22:37.075Z,9.04
2019-05-20T01:25:07.020Z,9.05
2019-05-20T01:27:36.385Z,9.05
2019-05-20T01:30:06.255Z,8.97
2019-05-20T01:32:35.634Z,9.01
2019-05-20T01:35:05.201Z,9.03
2019-05-20T01:37:34.502Z,9.04
2019-05-20T01:40:04.117Z,9.10
2019-05-20T01:42:33.434Z,9.36
2019-05-20T01:45:02.707Z,9.74
2019-05-20T01:47:32.035Z,10.20
2019-05-20T01:50:01.382Z,10.21
2019-05-20T01:52:30.594Z,10.35
2019-05-20T01:54:59.984Z,10.61
2019-05-20T01:57:29.344Z,10.77
2019-05-20T01:59:58.731Z,11.27
2019-05-20T02:02:28.047Z,11.33
2019-05-20T02:04:57.471Z,11.53
2019-05-20T02:07:26.826Z,11.65
2019-05-20T02:09:56.124Z,11.80
2019-05-20T02:12:25.494Z,11.92
2019-05-20T02:15:03.465Z,12.03
2019-05-20T02:17:32.819Z,11.97
2019-05-20T02:20:02.326Z,11.93
2019-05-20T02:22:31.778Z,11.97
2019-05-20T02:25:01.153Z,11.96
2019-05-20T02:27:30.457Z,12.04
2019-05-20T02:29:59.811Z,12.03
2019-05-20T02:32:29.181Z,12.05
2019-05-20T02:34:58.472Z,12.02
2019-05-20T02:37:27.951Z,11.99
2019-05-20T02:39:57.261Z,12.00
2019-05-20T02:42:26.596Z,12.13
2019-05-20T02:44:55.847Z,12.19
2019-05-20T02:47:25.248Z,12.16
2019-05-20T02:49:54.619Z,12.13
2019-05-20T02:52:24.041Z,12.18
2019-05-20T02:54:53.353Z,12.03
2019-05-20T02:57:22.674Z,11.99
2019-05-20T02:59:51.942Z,11.99
2019-05-20T03:02:21.298Z,11.92
2019-05-20T03:04:50.662Z,11.99
2019-05-20T03:07:19.975Z,12.04
2019-05-20T03:09:49.234Z,12.10
2019-05-20T03:12:18.687Z,12.11
2019-05-20T03:14:48.062Z,12.00
2019-05-20T03:17:17.506Z,12.07
2019-05-20T03:19:46.837Z,12.03
2019-05-20T03:22:16.103Z,12.07
2019-05-20T03:24:45.331Z,11.94
2019-05-20T03:27:14.663Z,11.97
2019-05-20T03:29:44.087Z,11.95
2019-05-20T03:32:13.492Z,11.95
2019-05-20T03:34:48.676Z,11.95
2019-05-20T03:37:13.988Z,11.97
2019-05-20T03:39:43.500Z,11.94
2019-05-20T03:42:12.859Z,11.97
2019-05-20T03:44:42.459Z,11.92
2019-05-20T03:47:11.674Z,11.98
2019-05-20T03:49:40.953Z,11.95
2019-05-20T03:52:10.219Z,11.95
2019-05-20T03:54:39.607Z,11.94
2019-05-20T03:57:08.865Z,11.92
2019-05-20T03:59:38.208Z,11.92
2019-05-20T04:02:07.695Z,11.93
2019-05-20T04:04:36.982Z,11.93
2019-05-20T04:07:06.276Z,11.89
2019-05-20T04:09:35.671Z,11.86
2019-05-20T04:12:04.952Z,11.85
2019-05-20T04:14:34.277Z,11.82
2019-05-20T04:17:03.615Z,11.92
2019-05-20T04:19:33.226Z,11.96
2019-05-20T04:22:02.603Z,12.01
2019-05-20T04:24:31.923Z,11.94
2019-05-20T04:27:01.929Z,11.97
2019-05-20T04:29:31.529Z,11.93
2019-05-20T04:32:00.926Z,12.03
2019-05-20T04:34:30.448Z,12.07
2019-05-20T04:36:59.987Z,12.15
2019-05-20T04:39:29.467Z,12.04
2019-05-20T04:41:59.014Z,11.96
2019-05-20T04:44:28.617Z,12.05
2019-05-20T04:46:58.192Z,12.06
2019-05-20T04:49:42.780Z,12.00
2019-05-20T04:52:12.072Z,12.01
2019-05-20T04:54:41.556Z,11.99
2019-05-20T04:57:10.998Z,12.01
2019-05-20T04:59:40.616Z,12.07
2019-05-20T05:02:10.036Z,11.90
2019-05-20T05:04:39.354Z,11.89
2019-05-20T05:07:08.819Z,11.89
2019-05-20T05:09:38.312Z,11.99
2019-05-20T05:12:08.142Z,11.89
2019-05-20T05:14:37.484Z,11.86
2019-05-20T05:17:06.790Z,11.83
2019-05-20T05:19:36.176Z,11.90
2019-05-20T05:22:05.635Z,11.91
2019-05-20T05:24:35.153Z,11.94
2019-05-20T05:27:04.827Z,12.03
2019-05-20T05:29:34.103Z,12.04
2019-05-20T05:32:03.666Z,11.99
2019-05-20T05:34:33.140Z,12.05
2019-05-20T05:37:02.490Z,12.25
2019-05-20T05:39:31.879Z,12.22
2019-05-20T05:42:01.227Z,12.14
2019-05-20T05:44:30.594Z,12.12
2019-05-20T05:46:59.976Z,12.12
2019-05-20T05:49:29.356Z,12.23
2019-05-20T05:51:58.750Z,12.17
2019-05-20T05:54:28.136Z,12.18
2019-05-20T05:56:57.497Z,12.23
2019-05-20T05:59:26.801Z,12.25
2019-05-20T06:01:56.161Z,12.19
2019-05-20T06:04:25.513Z,12.16
2019-05-20T06:06:54.906Z,12.34
2019-05-20T06:09:24.330Z,12.49
2019-05-20T06:11:53.728Z,12.40
2019-05-20T06:14:23.065Z,12.57
2019-05-20T06:16:52.426Z,12.78
2019-05-20T06:19:21.889Z,12.83
2019-05-20T06:21:51.393Z,13.06
2019-05-20T06:24:20.845Z,12.86
2019-05-20T06:26:50.361Z,12.67
2019-05-20T06:29:19.766Z,12.54
2019-05-20T06:31:49.452Z,12.61
2019-05-20T06:34:18.804Z,12.88
2019-05-20T06:36:50.749Z,13.05
2019-05-20T06:39:20.219Z,13.07
2019-05-20T06:41:49.565Z,13.00
2019-05-20T06:44:19.055Z,12.97
2019-05-20T06:46:48.430Z,12.97
2019-05-20T06:49:17.803Z,13.08
2019-05-20T06:51:47.129Z,13.35
2019-05-20T06:54:16.554Z,13.14
2019-05-20T06:56:46.352Z,12.93
2019-05-20T06:59:15.986Z,12.99
2019-05-20T07:01:45.361Z,13.22
2019-05-20T07:04:14.730Z,13.32
2019-05-20T07:06:47.303Z,13.32
2019-05-20T07:09:15.295Z,13.42
2019-05-20T07:11:52.333Z,13.09
2019-05-20T07:14:15.658Z,13.08
2019-05-20T07:16:45.023Z,13.08
2019-05-20T07:19:14.386Z,13.15
2019-05-20T07:21:43.948Z,13.04
2019-05-20T07:24:13.295Z,13.08
2019-05-20T07:26:42.840Z,13.03
2019-05-20T07:29:12.264Z,13.02
2019-05-20T07:31:41.578Z,13.07
2019-05-20T07:34:11.038Z,13.07
2019-05-20T07:36:40.413Z,13.01
2019-05-20T07:39:09.737Z,13.03
2019-05-20T07:41:41.680Z,13.06
2019-05-20T07:44:10.340Z,13.22
2019-05-20T07:46:39.734Z,13.14
2019-05-20T07:49:10.114Z,13.16
2019-05-20T07:51:41.152Z,13.10
2019-05-20T07:54:11.829Z,12.97
2019-05-20T07:56:44.139Z,13.19
2019-05-20T07:59:15.967Z,13.28
2019-05-20T08:01:45.342Z,13.49
2019-05-20T08:04:14.798Z,13.64
2019-05-20T08:06:44.277Z,13.62
2019-05-20T08:09:13.649Z,13.64
2019-05-20T08:11:43.209Z,13.86
2019-05-20T08:14:12.608Z,14.00
2019-05-20T08:16:42.175Z,14.14
2019-05-20T08:19:11.533Z,13.82
2019-05-20T08:21:40.856Z,13.68
2019-05-20T08:24:10.258Z,13.91
2019-05-20T08:26:39.599Z,13.86
2019-05-20T08:29:09.138Z,13.91
2019-05-20T08:31:38.477Z,13.83
2019-05-20T08:34:07.922Z,13.89
2019-05-20T08:36:37.219Z,13.45
2019-05-20T08:39:07.941Z,13.53
2019-05-20T08:41:37.514Z,13.52
2019-05-20T08:44:06.840Z,13.54
2019-05-20T08:46:36.288Z,13.38
2019-05-20T08:49:10.882Z,13.25
2019-05-20T08:51:36.781Z,13.25
2019-05-20T08:54:06.250Z,13.13
2019-05-20T08:56:35.531Z,13.24
2019-05-20T08:59:04.936Z,13.25
2019-05-20T09:01:34.386Z,13.37
2019-05-20T09:04:04.095Z,13.37
2019-05-20T09:06:33.575Z,13.23
2019-05-20T09:09:03.044Z,13.19
2019-05-20T09:11:32.468Z,13.28
2019-05-20T09:14:01.831Z,13.36
2019-05-20T09:16:31.099Z,13.21
2019-05-20T09:19:00.554Z,13.19
2019-05-20T09:21:30.120Z,13.17
2019-05-20T09:23:59.671Z,13.19
2019-05-20T09:26:29.058Z,13.30
2019-05-20T09:28:58.495Z,13.18
2019-05-20T09:31:28.034Z,13.17
2019-05-20T09:33:57.909Z,13.21
2019-05-20T09:36:27.274Z,13.26
2019-05-20T09:38:56.659Z,13.31
2019-05-20T09:41:26.132Z,13.18
2019-05-20T09:43:55.475Z,13.21
2019-05-20T09:46:24.831Z,13.38
2019-05-20T09:48:54.191Z,13.20
2019-05-20T09:51:23.619Z,13.43
2019-05-20T09:53:53.102Z,13.45
2019-05-20T09:56:22.478Z,13.23
2019-05-20T09:58:51.940Z,13.23
2019-05-20T10:01:21.451Z,13.29
2019-05-20T10:03:51.068Z,13.22
2019-05-20T10:06:20.465Z,12.99
2019-05-20T10:08:49.892Z,13.00
2019-05-20T10:11:19.379Z,13.14
2019-05-20T10:13:48.815Z,13.07
2019-05-20T10:16:18.208Z,13.21
2019-05-20T10:18:47.621Z,13.13
2019-05-20T10:21:17.014Z,13.18
2019-05-20T10:23:46.417Z,13.25
2019-05-20T10:26:15.873Z,13.41
2019-05-20T10:28:47.307Z,13.26
2019-05-20T10:31:16.492Z,13.31
2019-05-20T10:33:45.871Z,13.38
2019-05-20T10:36:15.216Z,13.58
2019-05-20T10:38:57.547Z,13.68
2019-05-20T10:41:15.729Z,13.87
2019-05-20T10:43:45.199Z,13.67
2019-05-20T10:46:14.554Z,13.50
2019-05-20T10:48:43.946Z,13.35
2019-05-20T10:51:13.332Z,13.38
2019-05-20T10:53:42.783Z,13.46
2019-05-20T10:56:13.164Z,13.48
2019-05-20T10:58:42.874Z,13.54
2019-05-20T11:02:36.584Z,13.93
2019-05-20T11:05:06.534Z,14.47
2019-05-20T11:07:35.915Z,14.93
2019-05-20T11:10:06.109Z,15.34
2019-05-20T11:12:35.624Z,16.10
2019-05-20T11:15:05.905Z,15.67
2019-05-20T11:17:35.218Z,15.05
2019-05-20T11:20:04.810Z,14.86
2019-05-20T11:22:34.162Z,14.87
2019-05-20T11:25:03.612Z,14.33
2019-05-20T11:27:33.060Z,14.48
2019-05-20T11:30:02.376Z,14.50
2019-05-20T11:32:31.722Z,14.29
2019-05-20T11:35:01.415Z,14.33
2019-05-20T11:37:31.372Z,14.31
2019-05-20T11:40:00.696Z,14.20
2019-05-20T11:42:29.976Z,14.21
2019-05-20T11:44:59.363Z,14.16
2019-05-20T11:47:28.726Z,14.06
2019-05-20T11:49:58.097Z,14.22
2019-05-20T11:52:27.519Z,14.29
2019-05-20T11:54:57.088Z,14.75
2019-05-20T11:57:26.591Z,14.58
2019-05-20T11:59:55.992Z,14.53
2019-05-20T12:02:25.428Z,14.88
2019-05-20T12:04:54.784Z,15.53
2019-05-20T12:07:24.086Z,15.56
2019-05-20T12:09:53.443Z,15.82
2019-05-20T12:12:22.815Z,15.94
2019-05-20T12:14:52.169Z,15.76
2019-05-20T12:17:21.474Z,15.76
2019-05-20T12:19:50.871Z,16.03
2019-05-20T12:22:20.342Z,15.66
2019-05-20T12:24:51.748Z,15.33
2019-05-20T12:27:20.839Z,15.02
2019-05-20T12:29:50.288Z,15.13
2019-05-20T12:32:19.665Z,15.05
2019-05-20T12:34:49.165Z,14.96
2019-05-20T12:37:18.467Z,14.92
2019-05-20T12:39:47.884Z,14.86
2019-05-20T12:42:17.279Z,14.87
2019-05-20T12:44:46.800Z,14.79
2019-05-20T12:47:16.201Z,14.75
2019-05-20T12:49:45.714Z,14.68
2019-05-20T12:52:15.176Z,14.72
2019-05-20T12:54:44.559Z,14.51
2019-05-20T12:57:14.040Z,14.86
2019-05-20T12:59:43.543Z,14.49
2019-05-20T13:02:17.009Z,14.28
2019-05-20T13:04:44.171Z,14.50
2019-05-20T13:07:13.533Z,14.74
2019-05-20T13:09:42.985Z,14.53
2019-05-20T13:12:12.461Z,14.46
2019-05-20T13:14:41.848Z,14.64
2019-05-20T13:17:11.666Z,15.48
2019-05-20T13:19:41.260Z,15.19
2019-05-20T13:22:10.716Z,15.36
2019-05-20T13:24:40.083Z,15.32
2019-05-20T13:27:09.531Z,15.10
2019-05-20T13:29:38.870Z,15.27
2019-05-20T13:32:08.194Z,15.03
2019-05-20T13:34:37.493Z,15.12
2019-05-20T13:37:06.847Z,15.25
2019-05-20T13:39:37.821Z,15.10
2019-05-20T13:42:07.148Z,15.24
2019-05-20T13:44:36.474Z,15.24
2019-05-20T13:47:05.958Z,15.12
2019-05-20T13:49:35.218Z,15.04
2019-05-20T13:52:04.758Z,14.71
2019-05-20T13:54:34.149Z,14.57
2019-05-20T13:57:03.577Z,14.44
2019-05-20T13:59:32.979Z,14.40
2019-05-20T14:02:02.317Z,14.22
2019-05-20T14:04:31.668Z,14.05
2019-05-20T14:07:01.138Z,14.12
2019-05-20T14:09:30.489Z,14.34
2019-05-20T14:11:59.999Z,14.35
2019-05-20T14:14:29.505Z,14.43
2019-05-20T14:16:59.079Z,14.64
2019-05-20T14:19:28.512Z,14.47
2019-05-20T14:21:57.955Z,14.41
2019-05-20T14:24:27.336Z,14.74
2019-05-20T14:26:56.752Z,14.92
2019-05-20T14:29:26.280Z,15.41
2019-05-20T14:31:55.779Z,15.63
2019-05-20T14:34:25.180Z,16.00
2019-05-20T14:36:54.497Z,15.79
2019-05-20T14:39:23.777Z,15.79
2019-05-20T14:41:53.412Z,15.35
2019-05-20T14:44:40.870Z,15.73
2019-05-20T14:47:10.302Z,15.49
2019-05-20T14:49:39.668Z,15.40
2019-05-20T14:52:09.055Z,14.88
2019-05-20T14:54:38.579Z,14.67
2019-05-20T14:57:07.971Z,14.50
2019-05-20T14:59:37.302Z,14.53
2019-05-20T15:02:06.665Z,14.45
2019-05-20T15:04:36.081Z,14.24
2019-05-20T15:07:05.341Z,14.31
2019-05-20T15:09:34.668Z,14.32
2019-05-20T15:12:04.311Z,14.45
2019-05-20T15:14:33.658Z,14.31
2019-05-20T15:17:50.775Z,14.49
2019-05-20T15:20:24.931Z,14.51
2019-05-20T15:22:54.538Z,14.73
2019-05-20T15:25:25.144Z,14.52
2019-05-20T15:27:55.081Z,14.54
2019-05-20T15:30:24.645Z,14.29
2019-05-20T15:32:54.855Z,14.53
2019-05-20T15:35:24.575Z,14.29
2019-05-20T15:37:53.991Z,14.13
2019-05-20T15:40:24.610Z,14.22
2019-05-20T15:42:54.287Z,14.24
2019-05-20T15:45:23.596Z,14.16
2019-05-20T15:47:52.901Z,14.01
2019-05-20T15:50:22.204Z,13.98
2019-05-20T15:52:51.562Z,13.96
2019-05-20T15:55:20.991Z,14.07
2019-05-20T15:57:51.397Z,14.15
2019-05-20T16:00:20.732Z,13.89
2019-05-20T16:02:49.983Z,13.89
2019-05-20T16:05:19.269Z,13.70
2019-05-20T16:07:49.292Z,13.86
2019-05-20T16:12:34.235Z,13.59
2019-05-20T16:15:03.189Z,13.54
2019-05-20T16:17:32.679Z,13.47
2019-05-20T16:20:06.837Z,13.51
2019-05-20T16:22:35.046Z,13.50
2019-05-20T16:25:09.723Z,13.52
2019-05-20T16:27:39.324Z,13.56
2019-05-20T16:30:10.146Z,13.46
2019-05-20T16:32:39.725Z,13.47
2019-05-20T16:35:09.758Z,13.35
2019-05-20T16:37:57.606Z,13.36
2019-05-20T16:40:29.985Z,13.41
2019-05-20T16:42:59.432Z,13.28
2019-05-20T16:45:28.820Z,13.28
2019-05-20T16:47:58.150Z,13.28
2019-05-20T16:50:27.819Z,13.35
2019-05-20T16:52:57.426Z,13.21
2019-05-20T16:55:26.901Z,13.28
2019-05-20T16:57:56.205Z,13.19
2019-05-20T17:00:31.194Z,13.23
2019-05-20T17:02:56.682Z,13.29
2019-05-20T17:05:25.977Z,13.28
2019-05-20T17:07:55.538Z,13.24
2019-05-20T17:10:24.941Z,13.21
2019-05-20T17:12:54.318Z,13.12
2019-05-20T17:15:59.008Z,13.13
2019-05-20T17:18:28.684Z,12.97
2019-05-20T17:20:58.052Z,12.98
2019-05-20T17:23:27.234Z,13.01
2019-05-20T17:25:56.842Z,12.99
2019-05-20T17:28:26.102Z,13.00
2019-05-20T17:30:55.283Z,13.05
2019-05-20T17:33:24.526Z,13.03
2019-05-20T17:35:53.772Z,12.99
2019-05-20T17:38:23.144Z,12.97
2019-05-20T17:40:52.658Z,12.88
2019-05-20T17:43:22.008Z,12.93
2019-05-20T17:45:51.323Z,12.95
2019-05-20T17:48:20.689Z,12.91
2019-05-20T17:50:49.945Z,12.87
2019-05-20T17:53:19.336Z,12.91
2019-05-20T17:55:48.559Z,12.95
2019-05-20T17:58:18.307Z,12.93
2019-05-20T18:00:48.084Z,12.85
2019-05-20T18:03:17.432Z,12.86
2019-05-20T18:05:46.864Z,12.94
2019-05-20T18:08:16.336Z,12.86
2019-05-20T18:10:54.098Z,12.89
2019-05-20T18:13:23.473Z,12.78
2019-05-20T18:15:52.887Z,12.80
2019-05-20T18:18:22.299Z,12.71
2019-05-20T18:20:51.850Z,12.70
2019-05-20T18:23:21.196Z,12.73
2019-05-20T18:25:50.653Z,12.69
2019-05-20T18:28:20.120Z,12.62
2019-05-20T18:30:49.672Z,12.59
2019-05-20T18:33:20.824Z,12.56
2019-05-20T18:35:50.354Z,12.55
2019-05-20T18:38:19.837Z,12.59
2019-05-20T18:40:49.212Z,12.63
2019-05-20T18:43:18.608Z,12.54
2019-05-20T18:45:48.030Z,12.55
2019-05-20T18:48:17.825Z,12.43
2019-05-20T18:50:47.234Z,12.41
2019-05-20T18:53:16.667Z,12.42
2019-05-20T18:55:46.095Z,12.37
2019-05-20T18:58:15.840Z,12.38
2019-05-20T19:00:45.270Z,12.28
2019-05-20T19:03:14.779Z,12.31
2019-05-20T19:05:44.068Z,12.42
2019-05-20T19:08:13.641Z,12.31
2019-05-20T19:10:43.089Z,12.23
2019-05-20T19:13:12.738Z,12.16
2019-05-20T19:15:42.765Z,12.19
2019-05-20T19:18:12.332Z,12.14
2019-05-20T19:20:41.783Z,12.19
2019-05-20T19:23:11.215Z,12.16
2019-05-20T19:25:43.837Z,12.10
2019-05-20T19:28:11.725Z,12.08
2019-05-20T19:30:41.290Z,12.09
2019-05-20T19:33:10.777Z,12.05
2019-05-20T19:35:40.293Z,12.13
2019-05-20T19:38:09.782Z,12.04
2019-05-20T19:40:39.039Z,12.10
2019-05-20T19:43:08.230Z,12.18
2019-05-20T19:45:39.895Z,12.21
2019-05-20T19:48:09.314Z,12.18
2019-05-20T19:50:38.724Z,12.16
2019-05-20T19:53:08.313Z,12.14
2019-05-20T19:55:37.693Z,12.14
2019-05-20T19:58:07.109Z,12.12
2019-05-20T20:00:39.295Z,12.01
2019-05-20T20:03:08.666Z,12.08
2019-05-20T20:05:37.959Z,12.07
2019-05-20T20:08:07.284Z,12.00
2019-05-20T20:10:36.870Z,12.06
2019-05-20T20:13:06.519Z,11.99
2019-05-20T20:15:35.875Z,11.99
2019-05-20T20:18:05.406Z,11.97
2019-05-20T20:20:34.898Z,12.01
2019-05-20T20:23:04.432Z,12.07
2019-05-20T20:25:33.760Z,11.93
2019-05-20T20:28:03.134Z,12.02
2019-05-20T20:31:46.641Z,12.05
2019-05-20T20:34:16.159Z,12.04
2019-05-20T20:36:45.406Z,12.03
2019-05-20T20:39:14.834Z,12.00
2019-05-20T20:41:44.282Z,12.05
2019-05-20T20:44:13.721Z,11.97
2019-05-20T20:46:43.085Z,11.95
2019-05-20T20:49:14.756Z,11.96
2019-05-20T20:51:43.670Z,11.96
2019-05-20T20:54:16.802Z,11.98
2019-05-20T20:56:53.491Z,12.00
2019-05-20T20:59:22.856Z,11.97
2019-05-20T21:01:55.325Z,12.03
2019-05-20T21:04:23.480Z,12.06
2019-05-20T21:06:52.790Z,12.05
2019-05-20T21:09:22.138Z,11.93
2019-05-20T21:11:51.440Z,11.95
2019-05-20T21:14:20.814Z,12.02
2019-05-20T21:16:50.216Z,11.95
2019-05-20T21:19:19.552Z,11.95
2019-05-20T21:21:48.947Z,11.94
2019-05-20T21:24:18.354Z,12.02
2019-05-20T21:26:47.852Z,11.97
2019-05-20T21:29:17.341Z,11.97
2019-05-20T21:31:46.675Z,11.99
2019-05-20T21:34:16.192Z,11.95
2019-05-20T21:36:48.068Z,11.95
2019-05-20T21:39:16.958Z,11.93
2019-05-20T21:41:46.354Z,11.96
2019-05-20T21:44:15.748Z,11.93
2019-05-20T21:46:45.109Z,11.98
2019-05-20T21:49:14.507Z,11.93
2019-05-20T21:51:43.890Z,12.00
2019-05-20T21:54:13.204Z,11.98
2019-05-20T21:56:42.497Z,11.91
2019-05-20T21:59:11.846Z,11.93
2019-05-20T22:01:41.303Z,11.91
2019-05-20T22:04:10.696Z,11.94
2019-05-20T22:06:39.993Z,12.02
2019-05-20T22:09:10.015Z,11.97
2019-05-20T22:11:39.658Z,12.03
2019-05-20T22:14:09.116Z,11.99
2019-05-20T22:16:38.432Z,11.97
2019-05-20T22:19:07.812Z,11.96
2019-05-20T22:21:58.841Z,11.96
2019-05-20T22:24:28.215Z,11.90
2019-05-20T22:26:57.660Z,12.01
2019-05-20T22:29:27.046Z,11.95
2019-05-20T22:31:56.473Z,11.93
2019-05-20T22:34:25.903Z,11.93
2019-05-20T22:36:55.217Z,11.96
2019-05-20T22:39:24.585Z,11.92
2019-05-20T22:41:54.084Z,11.97
2019-05-20T22:44:23.437Z,11.95
2019-05-20T22:46:52.935Z,11.90
2019-05-20T22:49:22.400Z,11.87
2019-05-20T22:51:51.868Z,11.98
2019-05-20T22:54:21.134Z,11.88
2019-05-20T22:56:50.672Z,11.92
2019-05-20T22:59:19.948Z,11.84
2019-05-20T23:01:49.414Z,11.89
2019-05-20T23:04:18.822Z,11.87
2019-05-20T23:06:48.316Z,11.85
2019-05-20T23:09:17.868Z,11.88
2019-05-20T23:11:47.244Z,11.82
2019-05-20T23:14:16.614Z,11.74
2019-05-20T23:16:46.017Z,11.81
2019-05-20T23:19:15.324Z,11.88
2019-05-20T23:21:44.809Z,11.90
2019-05-20T23:24:14.096Z,11.83
2019-05-20T23:26:43.696Z,11.86
2019-05-20T23:29:13.129Z,11.85
2019-05-20T23:31:42.457Z,11.76
2019-05-20T23:34:13.288Z,11.80
2019-05-20T23:36:43.107Z,11.83
2019-05-20T23:39:12.562Z,11.81
2019-05-20T23:41:41.921Z,11.81
2019-05-20T23:44:11.255Z,11.83
2019-05-20T23:46:40.612Z,11.85
2019-05-20T23:49:09.883Z,11.78
2019-05-20T23:51:39.306Z,11.80
2019-05-20T23:54:08.581Z,11.87
2019-05-20T23:56:38.042Z,11.84
2019-05-20T23:59:07.360Z,11.81
